sensor_id;sensor_type;location;lat;lon;timestamp;P1;durP1;ratioP1;P2;durP2;ratioP2
74259;SDS011;62630;55.874;37.516;2023-04-03T00:02:04;10.60;;;5.85;;
74259;SDS011;62630;55.874;37.516;2023-04-03T00:04:29;13.70;;;5.95;;
74259;SDS011;62630;55.874;37.516;2023-04-03T00:06:55;13.60;;;6.40;;
74259;SDS011;62630;55.874;37.516;2023-04-03T00:09:20;9.10;;;5.95;;
74259;SDS011;62630;55.874;37.516;2023-04-03T00:11:46;12.93;;;6.70;;
74259;SDS011;62630;55.874;37.516;2023-04-03T00:14:11;8.95;;;6.15;;
74259;SDS011;62630;55.874;37.516;2023-04-03T00:16:37;9.75;;;5.65;;
74259;SDS011;62630;55.874;37.516;2023-04-03T00:19:03;11.40;;;6.70;;
74259;SDS011;62630;55.874;37.516;2023-04-03T00:21:28;8.65;;;6.03;;
74259;SDS011;62630;55.874;37.516;2023-04-03T00:23:54;13.40;;;6.15;;
74259;SDS011;62630;55.874;37.516;2023-04-03T00:26:20;10.40;;;6.18;;
74259;SDS011;62630;55.874;37.516;2023-04-03T00:28:45;11.48;;;6.43;;
74259;SDS011;62630;55.874;37.516;2023-04-03T00:31:13;10.20;;;6.43;;
74259;SDS011;62630;55.874;37.516;2023-04-03T00:33:40;12.75;;;6.57;;
74259;SDS011;62630;55.874;37.516;2023-04-03T00:36:07;11.60;;;6.93;;
74259;SDS011;62630;55.874;37.516;2023-04-03T00:38:37;8.60;;;6.13;;
74259;SDS011;62630;55.874;37.516;2023-04-03T00:41:03;13.93;;;7.13;;
74259;SDS011;62630;55.874;37.516;2023-04-03T00:43:29;12.00;;;6.80;;
74259;SDS011;62630;55.874;37.516;2023-04-03T00:45:56;12.70;;;6.82;;
74259;SDS011;62630;55.874;37.516;2023-04-03T00:48:27;9.52;;;6.57;;
74259;SDS011;62630;55.874;37.516;2023-04-03T00:50:55;10.18;;;7.10;;
74259;SDS011;62630;55.874;37.516;2023-04-03T00:53:32;10.70;;;6.78;;
74259;SDS011;62630;55.874;37.516;2023-04-03T00:56:01;11.40;;;6.80;;
74259;SDS011;62630;55.874;37.516;2023-04-03T00:58:35;13.38;;;7.63;;
74259;SDS011;62630;55.874;37.516;2023-04-03T01:01:07;13.57;;;8.02;;
74259;SDS011;62630;55.874;37.516;2023-04-03T01:03:36;14.38;;;7.85;;
74259;SDS011;62630;55.874;37.516;2023-04-03T01:06:02;13.35;;;8.27;;
74259;SDS011;62630;55.874;37.516;2023-04-03T01:08:28;12.88;;;7.32;;
74259;SDS011;62630;55.874;37.516;2023-04-03T01:10:55;11.80;;;8.23;;
74259;SDS011;62630;55.874;37.516;2023-04-03T01:13:27;16.20;;;9.05;;
74259;SDS011;62630;55.874;37.516;2023-04-03T01:15:55;14.55;;;8.38;;
74259;SDS011;62630;55.874;37.516;2023-04-03T01:18:22;18.38;;;8.65;;
74259;SDS011;62630;55.874;37.516;2023-04-03T01:21:01;14.40;;;7.60;;
74259;SDS011;62630;55.874;37.516;2023-04-03T01:26:03;13.93;;;8.07;;
74259;SDS011;62630;55.874;37.516;2023-04-03T01:28:30;15.43;;;7.90;;
74259;SDS011;62630;55.874;37.516;2023-04-03T01:31:10;12.25;;;7.95;;
74259;SDS011;62630;55.874;37.516;2023-04-03T01:33:44;14.95;;;8.07;;
74259;SDS011;62630;55.874;37.516;2023-04-03T01:36:10;18.58;;;8.45;;
74259;SDS011;62630;55.874;37.516;2023-04-03T01:38:40;12.98;;;7.85;;
74259;SDS011;62630;55.874;37.516;2023-04-03T01:41:06;15.13;;;7.00;;
74259;SDS011;62630;55.874;37.516;2023-04-03T01:43:32;11.75;;;6.35;;
74259;SDS011;62630;55.874;37.516;2023-04-03T01:45:57;11.43;;;6.88;;
74259;SDS011;62630;55.874;37.516;2023-04-03T01:48:23;10.13;;;6.13;;
74259;SDS011;62630;55.874;37.516;2023-04-03T01:50:48;11.63;;;6.72;;
74259;SDS011;62630;55.874;37.516;2023-04-03T01:53:15;12.27;;;6.22;;
74259;SDS011;62630;55.874;37.516;2023-04-03T01:55:40;8.20;;;5.05;;
74259;SDS011;62630;55.874;37.516;2023-04-03T01:58:06;10.18;;;5.60;;
74259;SDS011;62630;55.874;37.516;2023-04-03T02:00:31;9.73;;;6.28;;
74259;SDS011;62630;55.874;37.516;2023-04-03T02:02:57;10.85;;;6.07;;
74259;SDS011;62630;55.874;37.516;2023-04-03T02:05:22;14.25;;;6.43;;
74259;SDS011;62630;55.874;37.516;2023-04-03T02:07:48;13.77;;;5.95;;
74259;SDS011;62630;55.874;37.516;2023-04-03T02:10:14;9.93;;;5.82;;
74259;SDS011;62630;55.874;37.516;2023-04-03T02:12:40;11.52;;;5.80;;
74259;SDS011;62630;55.874;37.516;2023-04-03T02:15:06;14.77;;;6.05;;
74259;SDS011;62630;55.874;37.516;2023-04-03T02:17:31;15.75;;;5.82;;
74259;SDS011;62630;55.874;37.516;2023-04-03T02:19:58;9.93;;;5.65;;
74259;SDS011;62630;55.874;37.516;2023-04-03T02:22:23;11.75;;;5.70;;
74259;SDS011;62630;55.874;37.516;2023-04-03T02:24:49;15.65;;;5.70;;
74259;SDS011;62630;55.874;37.516;2023-04-03T02:27:27;8.85;;;5.78;;
74259;SDS011;62630;55.874;37.516;2023-04-03T02:30:01;11.00;;;6.03;;
74259;SDS011;62630;55.874;37.516;2023-04-03T02:32:28;10.43;;;6.00;;
74259;SDS011;62630;55.874;37.516;2023-04-03T02:34:54;13.65;;;6.38;;
74259;SDS011;62630;55.874;37.516;2023-04-03T02:37:19;10.02;;;5.65;;
74259;SDS011;62630;55.874;37.516;2023-04-03T02:39:45;11.85;;;5.93;;
74259;SDS011;62630;55.874;37.516;2023-04-03T02:42:11;11.60;;;5.97;;
74259;SDS011;62630;55.874;37.516;2023-04-03T02:44:36;13.02;;;5.80;;
74259;SDS011;62630;55.874;37.516;2023-04-03T02:47:03;10.68;;;5.97;;
74259;SDS011;62630;55.874;37.516;2023-04-03T02:49:29;11.55;;;5.57;;
74259;SDS011;62630;55.874;37.516;2023-04-03T02:51:55;11.98;;;6.32;;
74259;SDS011;62630;55.874;37.516;2023-04-03T02:54:20;9.45;;;6.22;;
74259;SDS011;62630;55.874;37.516;2023-04-03T02:59:14;9.85;;;5.15;;
74259;SDS011;62630;55.874;37.516;2023-04-03T03:01:39;9.73;;;5.82;;
74259;SDS011;62630;55.874;37.516;2023-04-03T03:04:11;9.73;;;5.97;;
74259;SDS011;62630;55.874;37.516;2023-04-03T03:06:36;10.77;;;6.07;;
74259;SDS011;62630;55.874;37.516;2023-04-03T03:09:11;11.25;;;5.97;;
74259;SDS011;62630;55.874;37.516;2023-04-03T03:11:38;13.98;;;7.20;;
74259;SDS011;62630;55.874;37.516;2023-04-03T03:14:03;15.23;;;6.00;;
74259;SDS011;62630;55.874;37.516;2023-04-03T03:16:29;13.93;;;6.18;;
74259;SDS011;62630;55.874;37.516;2023-04-03T03:18:55;10.13;;;6.03;;
74259;SDS011;62630;55.874;37.516;2023-04-03T03:21:20;10.95;;;5.95;;
74259;SDS011;62630;55.874;37.516;2023-04-03T03:23:46;11.32;;;6.15;;
74259;SDS011;62630;55.874;37.516;2023-04-03T03:26:11;20.15;;;6.25;;
74259;SDS011;62630;55.874;37.516;2023-04-03T03:28:37;12.57;;;6.63;;
74259;SDS011;62630;55.874;37.516;2023-04-03T03:31:04;12.40;;;6.03;;
74259;SDS011;62630;55.874;37.516;2023-04-03T03:33:31;13.95;;;6.25;;
74259;SDS011;62630;55.874;37.516;2023-04-03T03:35:56;12.60;;;5.80;;
74259;SDS011;62630;55.874;37.516;2023-04-03T03:38:24;11.15;;;6.75;;
74259;SDS011;62630;55.874;37.516;2023-04-03T03:40:50;10.93;;;6.35;;
74259;SDS011;62630;55.874;37.516;2023-04-03T03:43:16;10.10;;;6.65;;
74259;SDS011;62630;55.874;37.516;2023-04-03T03:45:43;11.18;;;7.05;;
74259;SDS011;62630;55.874;37.516;2023-04-03T03:48:09;10.70;;;6.55;;
74259;SDS011;62630;55.874;37.516;2023-04-03T03:50:35;13.45;;;6.88;;
74259;SDS011;62630;55.874;37.516;2023-04-03T03:53:01;12.00;;;6.63;;
74259;SDS011;62630;55.874;37.516;2023-04-03T03:55:26;11.90;;;7.35;;
74259;SDS011;62630;55.874;37.516;2023-04-03T03:57:52;11.35;;;6.78;;
74259;SDS011;62630;55.874;37.516;2023-04-03T04:00:18;10.13;;;6.60;;
74259;SDS011;62630;55.874;37.516;2023-04-03T04:02:44;13.30;;;6.68;;
74259;SDS011;62630;55.874;37.516;2023-04-03T04:05:10;13.57;;;6.50;;
74259;SDS011;62630;55.874;37.516;2023-04-03T04:07:36;12.98;;;6.78;;
74259;SDS011;62630;55.874;37.516;2023-04-03T04:10:02;13.70;;;6.88;;
74259;SDS011;62630;55.874;37.516;2023-04-03T04:12:28;10.40;;;6.68;;
74259;SDS011;62630;55.874;37.516;2023-04-03T04:14:54;9.52;;;6.93;;
74259;SDS011;62630;55.874;37.516;2023-04-03T04:17:19;14.32;;;7.65;;
74259;SDS011;62630;55.874;37.516;2023-04-03T04:19:46;10.20;;;6.65;;
74259;SDS011;62630;55.874;37.516;2023-04-03T04:22:11;13.50;;;6.63;;
74259;SDS011;62630;55.874;37.516;2023-04-03T04:24:37;15.50;;;7.65;;
74259;SDS011;62630;55.874;37.516;2023-04-03T04:27:02;16.38;;;8.18;;
74259;SDS011;62630;55.874;37.516;2023-04-03T04:29:28;11.90;;;7.32;;
74259;SDS011;62630;55.874;37.516;2023-04-03T04:31:54;16.40;;;7.90;;
74259;SDS011;62630;55.874;37.516;2023-04-03T04:34:19;16.15;;;7.95;;
74259;SDS011;62630;55.874;37.516;2023-04-03T04:36:45;12.55;;;7.97;;
74259;SDS011;62630;55.874;37.516;2023-04-03T04:39:10;15.25;;;8.45;;
74259;SDS011;62630;55.874;37.516;2023-04-03T04:41:36;15.48;;;8.30;;
74259;SDS011;62630;55.874;37.516;2023-04-03T04:44:01;13.35;;;7.57;;
74259;SDS011;62630;55.874;37.516;2023-04-03T04:46:27;16.25;;;7.97;;
74259;SDS011;62630;55.874;37.516;2023-04-03T04:48:53;16.52;;;8.48;;
74259;SDS011;62630;55.874;37.516;2023-04-03T04:51:18;15.98;;;8.15;;
74259;SDS011;62630;55.874;37.516;2023-04-03T04:53:44;15.60;;;9.52;;
74259;SDS011;62630;55.874;37.516;2023-04-03T04:56:10;16.50;;;7.55;;
74259;SDS011;62630;55.874;37.516;2023-04-03T04:58:35;16.50;;;8.48;;
74259;SDS011;62630;55.874;37.516;2023-04-03T05:01:01;13.40;;;7.68;;
74259;SDS011;62630;55.874;37.516;2023-04-03T05:03:31;17.30;;;8.07;;
74259;SDS011;62630;55.874;37.516;2023-04-03T05:05:58;18.10;;;8.90;;
74259;SDS011;62630;55.874;37.516;2023-04-03T05:08:24;15.73;;;8.68;;
74259;SDS011;62630;55.874;37.516;2023-04-03T05:10:50;14.80;;;8.68;;
74259;SDS011;62630;55.874;37.516;2023-04-03T05:13:16;18.33;;;8.88;;
74259;SDS011;62630;55.874;37.516;2023-04-03T05:15:41;15.68;;;8.52;;
74259;SDS011;62630;55.874;37.516;2023-04-03T05:18:07;12.18;;;8.55;;
74259;SDS011;62630;55.874;37.516;2023-04-03T05:20:33;17.42;;;9.52;;
74259;SDS011;62630;55.874;37.516;2023-04-03T05:22:59;16.60;;;9.73;;
74259;SDS011;62630;55.874;37.516;2023-04-03T05:25:25;16.25;;;8.23;;
74259;SDS011;62630;55.874;37.516;2023-04-03T05:27:51;15.82;;;9.30;;
74259;SDS011;62630;55.874;37.516;2023-04-03T05:30:17;14.35;;;9.13;;
74259;SDS011;62630;55.874;37.516;2023-04-03T05:32:43;22.65;;;9.05;;
74259;SDS011;62630;55.874;37.516;2023-04-03T05:35:08;17.65;;;9.13;;
74259;SDS011;62630;55.874;37.516;2023-04-03T05:37:34;16.90;;;9.93;;
74259;SDS011;62630;55.874;37.516;2023-04-03T05:40:00;24.95;;;10.90;;
74259;SDS011;62630;55.874;37.516;2023-04-03T05:42:26;21.33;;;10.98;;
74259;SDS011;62630;55.874;37.516;2023-04-03T05:44:51;15.77;;;9.75;;
74259;SDS011;62630;55.874;37.516;2023-04-03T05:47:17;15.05;;;9.85;;
74259;SDS011;62630;55.874;37.516;2023-04-03T05:49:43;19.60;;;10.63;;
74259;SDS011;62630;55.874;37.516;2023-04-03T05:52:23;22.70;;;10.65;;
74259;SDS011;62630;55.874;37.516;2023-04-03T05:54:52;18.10;;;10.60;;
74259;SDS011;62630;55.874;37.516;2023-04-03T05:57:18;21.98;;;11.18;;
74259;SDS011;62630;55.874;37.516;2023-04-03T05:59:44;19.23;;;10.95;;
74259;SDS011;62630;55.874;37.516;2023-04-03T06:02:19;23.48;;;11.57;;
74259;SDS011;62630;55.874;37.516;2023-04-03T06:04:46;20.45;;;9.73;;
74259;SDS011;62630;55.874;37.516;2023-04-03T06:07:16;19.50;;;10.48;;
74259;SDS011;62630;55.874;37.516;2023-04-03T06:09:46;19.42;;;10.80;;
74259;SDS011;62630;55.874;37.516;2023-04-03T06:12:12;21.42;;;9.85;;
74259;SDS011;62630;55.874;37.516;2023-04-03T06:14:37;16.42;;;9.68;;
74259;SDS011;62630;55.874;37.516;2023-04-03T06:17:03;17.77;;;9.77;;
74259;SDS011;62630;55.874;37.516;2023-04-03T06:19:29;17.30;;;9.38;;
74259;SDS011;62630;55.874;37.516;2023-04-03T06:21:55;19.75;;;9.07;;
74259;SDS011;62630;55.874;37.516;2023-04-03T06:24:21;15.15;;;8.90;;
74259;SDS011;62630;55.874;37.516;2023-04-03T06:26:49;16.42;;;9.20;;
74259;SDS011;62630;55.874;37.516;2023-04-03T06:29:16;17.63;;;8.80;;
74259;SDS011;62630;55.874;37.516;2023-04-03T06:31:43;15.00;;;9.07;;
74259;SDS011;62630;55.874;37.516;2023-04-03T06:34:08;18.05;;;8.02;;
74259;SDS011;62630;55.874;37.516;2023-04-03T06:36:34;21.85;;;8.95;;
74259;SDS011;62630;55.874;37.516;2023-04-03T06:39:00;22.10;;;9.32;;
74259;SDS011;62630;55.874;37.516;2023-04-03T06:41:26;14.77;;;8.52;;
74259;SDS011;62630;55.874;37.516;2023-04-03T06:43:52;17.10;;;8.48;;
74259;SDS011;62630;55.874;37.516;2023-04-03T06:46:18;19.75;;;8.55;;
74259;SDS011;62630;55.874;37.516;2023-04-03T06:48:46;21.08;;;8.35;;
74259;SDS011;62630;55.874;37.516;2023-04-03T06:51:16;19.95;;;9.95;;
74259;SDS011;62630;55.874;37.516;2023-04-03T06:53:53;15.77;;;8.68;;
74259;SDS011;62630;55.874;37.516;2023-04-03T06:56:21;20.45;;;9.27;;
74259;SDS011;62630;55.874;37.516;2023-04-03T06:58:47;22.42;;;9.07;;
74259;SDS011;62630;55.874;37.516;2023-04-03T07:01:15;15.25;;;8.75;;
74259;SDS011;62630;55.874;37.516;2023-04-03T07:03:41;23.30;;;9.68;;
74259;SDS011;62630;55.874;37.516;2023-04-03T07:06:07;15.85;;;9.10;;
74259;SDS011;62630;55.874;37.516;2023-04-03T07:08:36;23.15;;;10.10;;
74259;SDS011;62630;55.874;37.516;2023-04-03T07:11:03;18.60;;;9.82;;
74259;SDS011;62630;55.874;37.516;2023-04-03T07:13:29;22.77;;;10.15;;
74259;SDS011;62630;55.874;37.516;2023-04-03T07:15:55;24.25;;;9.77;;
74259;SDS011;62630;55.874;37.516;2023-04-03T07:18:21;17.73;;;9.32;;
74259;SDS011;62630;55.874;37.516;2023-04-03T07:20:48;19.08;;;10.35;;
74259;SDS011;62630;55.874;37.516;2023-04-03T07:23:14;23.98;;;9.50;;
74259;SDS011;62630;55.874;37.516;2023-04-03T07:25:44;15.68;;;9.70;;
74259;SDS011;62630;55.874;37.516;2023-04-03T07:28:10;24.05;;;9.10;;
74259;SDS011;62630;55.874;37.516;2023-04-03T07:30:47;26.55;;;10.82;;
74259;SDS011;62630;55.874;37.516;2023-04-03T07:33:14;24.08;;;10.00;;
74259;SDS011;62630;55.874;37.516;2023-04-03T07:35:41;23.70;;;10.18;;
74259;SDS011;62630;55.874;37.516;2023-04-03T07:38:07;25.05;;;9.98;;
74259;SDS011;62630;55.874;37.516;2023-04-03T07:40:33;25.52;;;10.13;;
74259;SDS011;62630;55.874;37.516;2023-04-03T07:43:00;20.98;;;10.70;;
74259;SDS011;62630;55.874;37.516;2023-04-03T07:45:26;28.73;;;11.30;;
74259;SDS011;62630;55.874;37.516;2023-04-03T07:47:52;24.52;;;10.93;;
74259;SDS011;62630;55.874;37.516;2023-04-03T07:50:18;22.67;;;9.77;;
74259;SDS011;62630;55.874;37.516;2023-04-03T07:52:43;22.70;;;10.40;;
74259;SDS011;62630;55.874;37.516;2023-04-03T07:55:09;16.08;;;9.88;;
74259;SDS011;62630;55.874;37.516;2023-04-03T07:57:35;20.80;;;10.57;;
74259;SDS011;62630;55.874;37.516;2023-04-03T08:00:02;29.75;;;10.48;;
74259;SDS011;62630;55.874;37.516;2023-04-03T08:02:28;17.40;;;9.65;;
74259;SDS011;62630;55.874;37.516;2023-04-03T08:04:53;19.48;;;10.20;;
74259;SDS011;62630;55.874;37.516;2023-04-03T08:07:20;21.55;;;10.02;;
74259;SDS011;62630;55.874;37.516;2023-04-03T08:09:48;21.52;;;10.02;;
74259;SDS011;62630;55.874;37.516;2023-04-03T08:12:14;16.58;;;10.63;;
74259;SDS011;62630;55.874;37.516;2023-04-03T08:14:40;22.88;;;9.55;;
74259;SDS011;62630;55.874;37.516;2023-04-03T08:17:05;28.83;;;10.15;;
74259;SDS011;62630;55.874;37.516;2023-04-03T08:19:34;27.85;;;9.05;;
74259;SDS011;62630;55.874;37.516;2023-04-03T08:22:00;16.92;;;9.02;;
74259;SDS011;62630;55.874;37.516;2023-04-03T08:24:28;34.90;;;10.85;;
74259;SDS011;62630;55.874;37.516;2023-04-03T08:26:54;33.10;;;10.13;;
74259;SDS011;62630;55.874;37.516;2023-04-03T08:29:20;21.15;;;8.68;;
74259;SDS011;62630;55.874;37.516;2023-04-03T08:31:46;37.38;;;10.80;;
74259;SDS011;62630;55.874;37.516;2023-04-03T08:34:12;22.67;;;10.43;;
74259;SDS011;62630;55.874;37.516;2023-04-03T08:36:39;24.83;;;10.15;;
74259;SDS011;62630;55.874;37.516;2023-04-03T08:39:05;24.13;;;9.48;;
74259;SDS011;62630;55.874;37.516;2023-04-03T08:41:32;26.85;;;10.70;;
74259;SDS011;62630;55.874;37.516;2023-04-03T08:49:39;17.10;;;8.45;;
74259;SDS011;62630;55.874;37.516;2023-04-03T08:52:09;22.02;;;7.93;;
74259;SDS011;62630;55.874;37.516;2023-04-03T08:54:43;18.45;;;8.43;;
74259;SDS011;62630;55.874;37.516;2023-04-03T08:57:15;41.55;;;10.32;;
74259;SDS011;62630;55.874;37.516;2023-04-03T08:59:45;25.55;;;9.15;;
74259;SDS011;62630;55.874;37.516;2023-04-03T09:02:23;16.95;;;9.10;;
74259;SDS011;62630;55.874;37.516;2023-04-03T09:04:53;20.70;;;10.20;;
74259;SDS011;62630;55.874;37.516;2023-04-03T09:07:25;21.73;;;9.60;;
74259;SDS011;62630;55.874;37.516;2023-04-03T09:10:04;24.35;;;9.68;;
74259;SDS011;62630;55.874;37.516;2023-04-03T09:12:34;23.77;;;9.70;;
74259;SDS011;62630;55.874;37.516;2023-04-03T09:15:21;19.98;;;9.80;;
74259;SDS011;62630;55.874;37.516;2023-04-03T09:20:53;21.52;;;10.25;;
74259;SDS011;62630;55.874;37.516;2023-04-03T09:24:00;19.85;;;9.90;;
74259;SDS011;62630;55.874;37.516;2023-04-03T09:26:28;41.17;;;10.95;;
74259;SDS011;62630;55.874;37.516;2023-04-03T09:29:01;22.42;;;10.38;;
74259;SDS011;62630;55.874;37.516;2023-04-03T09:31:35;27.60;;;9.82;;
74259;SDS011;62630;55.874;37.516;2023-04-03T09:34:06;26.50;;;9.85;;
74259;SDS011;62630;55.874;37.516;2023-04-03T09:36:42;32.55;;;9.75;;
74259;SDS011;62630;55.874;37.516;2023-04-03T09:39:20;27.10;;;10.68;;
74259;SDS011;62630;55.874;37.516;2023-04-03T09:41:58;38.10;;;10.63;;
74259;SDS011;62630;55.874;37.516;2023-04-03T09:44:40;36.53;;;10.90;;
74259;SDS011;62630;55.874;37.516;2023-04-03T09:47:28;38.90;;;11.57;;
74259;SDS011;62630;55.874;37.516;2023-04-03T09:52:54;21.92;;;9.77;;
74259;SDS011;62630;55.874;37.516;2023-04-03T09:55:24;20.55;;;9.75;;
74259;SDS011;62630;55.874;37.516;2023-04-03T09:57:54;29.17;;;11.05;;
74259;SDS011;62630;55.874;37.516;2023-04-03T10:00:31;21.23;;;10.52;;
74259;SDS011;62630;55.874;37.516;2023-04-03T10:02:59;25.00;;;10.48;;
74259;SDS011;62630;55.874;37.516;2023-04-03T10:08:10;24.85;;;10.02;;
74259;SDS011;62630;55.874;37.516;2023-04-03T10:10:46;17.40;;;9.30;;
74259;SDS011;62630;55.874;37.516;2023-04-03T10:13:14;24.15;;;10.43;;
74259;SDS011;62630;55.874;37.516;2023-04-03T10:16:29;27.77;;;9.73;;
74259;SDS011;62630;55.874;37.516;2023-04-03T10:21:06;37.10;;;11.43;;
74259;SDS011;62630;55.874;37.516;2023-04-03T10:23:51;39.25;;;11.55;;
74259;SDS011;62630;55.874;37.516;2023-04-03T10:29:16;46.22;;;11.25;;
74259;SDS011;62630;55.874;37.516;2023-04-03T10:34:39;23.42;;;8.80;;
74259;SDS011;62630;55.874;37.516;2023-04-03T10:53:45;18.55;;;7.03;;
74259;SDS011;62630;55.874;37.516;2023-04-03T10:56:34;14.13;;;6.38;;
74259;SDS011;62630;55.874;37.516;2023-04-03T11:02:07;37.88;;;8.43;;
74259;SDS011;62630;55.874;37.516;2023-04-03T11:05:15;18.33;;;6.97;;
74259;SDS011;62630;55.874;37.516;2023-04-03T11:07:55;17.20;;;6.97;;
74259;SDS011;62630;55.874;37.516;2023-04-03T11:13:17;13.52;;;6.65;;
74259;SDS011;62630;55.874;37.516;2023-04-03T11:15:59;23.00;;;7.30;;
74259;SDS011;62630;55.874;37.516;2023-04-03T11:18:32;17.08;;;7.90;;
74259;SDS011;62630;55.874;37.516;2023-04-03T11:23:51;17.58;;;8.20;;
74259;SDS011;62630;55.874;37.516;2023-04-03T11:26:19;20.83;;;7.55;;
74259;SDS011;62630;55.874;37.516;2023-04-03T11:28:56;16.55;;;7.07;;
74259;SDS011;62630;55.874;37.516;2023-04-03T11:36:56;13.70;;;6.18;;
74259;SDS011;62630;55.874;37.516;2023-04-03T11:39:26;15.32;;;6.28;;
74259;SDS011;62630;55.874;37.516;2023-04-03T11:41:55;16.38;;;6.85;;
74259;SDS011;62630;55.874;37.516;2023-04-03T11:44:46;25.33;;;7.63;;
74259;SDS011;62630;55.874;37.516;2023-04-03T11:47:12;22.55;;;7.13;;
74259;SDS011;62630;55.874;37.516;2023-04-03T11:58:14;13.30;;;6.50;;
74259;SDS011;62630;55.874;37.516;2023-04-03T12:16:19;17.35;;;6.05;;
74259;SDS011;62630;55.874;37.516;2023-04-03T12:27:03;21.52;;;6.15;;
74259;SDS011;62630;55.874;37.516;2023-04-03T12:33:12;15.73;;;6.32;;
74259;SDS011;62630;55.874;37.516;2023-04-03T12:38:33;14.43;;;5.70;;
74259;SDS011;62630;55.874;37.516;2023-04-03T12:46:19;13.95;;;5.93;;
74259;SDS011;62630;55.874;37.516;2023-04-03T12:51:18;13.23;;;7.00;;
74259;SDS011;62630;55.874;37.516;2023-04-03T12:56:40;23.17;;;6.65;;
74259;SDS011;62630;55.874;37.516;2023-04-03T12:59:16;14.25;;;6.70;;
74259;SDS011;62630;55.874;37.516;2023-04-03T13:01:52;19.40;;;6.93;;
74259;SDS011;62630;55.874;37.516;2023-04-03T13:04:20;21.83;;;6.95;;
74259;SDS011;62630;55.874;37.516;2023-04-03T13:06:46;14.82;;;6.75;;
74259;SDS011;62630;55.874;37.516;2023-04-03T13:09:20;19.23;;;7.70;;
74259;SDS011;62630;55.874;37.516;2023-04-03T13:14:25;15.65;;;5.93;;
74259;SDS011;62630;55.874;37.516;2023-04-03T13:16:57;21.63;;;7.35;;
74259;SDS011;62630;55.874;37.516;2023-04-03T13:19:29;18.20;;;7.78;;
74259;SDS011;62630;55.874;37.516;2023-04-03T13:21:59;14.57;;;6.68;;
74259;SDS011;62630;55.874;37.516;2023-04-03T13:24:30;14.48;;;6.47;;
74259;SDS011;62630;55.874;37.516;2023-04-03T13:27:00;14.02;;;7.38;;
74259;SDS011;62630;55.874;37.516;2023-04-03T13:29:27;16.92;;;6.90;;
74259;SDS011;62630;55.874;37.516;2023-04-03T13:31:56;19.90;;;7.22;;
74259;SDS011;62630;55.874;37.516;2023-04-03T13:41:45;18.35;;;7.32;;
74259;SDS011;62630;55.874;37.516;2023-04-03T13:46:51;16.73;;;6.63;;
74259;SDS011;62630;55.874;37.516;2023-04-03T13:51:51;21.05;;;7.93;;
74259;SDS011;62630;55.874;37.516;2023-04-03T13:54:19;10.38;;;5.07;;
74259;SDS011;62630;55.874;37.516;2023-04-03T13:56:54;10.10;;;5.20;;
74259;SDS011;62630;55.874;37.516;2023-04-03T13:59:29;9.48;;;5.57;;
74259;SDS011;62630;55.874;37.516;2023-04-03T14:04:32;13.27;;;6.15;;
74259;SDS011;62630;55.874;37.516;2023-04-03T14:07:07;12.57;;;4.93;;
74259;SDS011;62630;55.874;37.516;2023-04-03T14:09:32;14.07;;;6.15;;
74259;SDS011;62630;55.874;37.516;2023-04-03T14:12:11;17.73;;;5.40;;
74259;SDS011;62630;55.874;37.516;2023-04-03T14:15:01;9.27;;;6.13;;
74259;SDS011;62630;55.874;37.516;2023-04-03T14:17:29;11.55;;;6.10;;
74259;SDS011;62630;55.874;37.516;2023-04-03T14:19:55;17.65;;;6.68;;
74259;SDS011;62630;55.874;37.516;2023-04-03T14:22:25;14.07;;;5.70;;
74259;SDS011;62630;55.874;37.516;2023-04-03T14:24:54;10.13;;;5.28;;
74259;SDS011;62630;55.874;37.516;2023-04-03T14:29:48;13.32;;;5.38;;
74259;SDS011;62630;55.874;37.516;2023-04-03T14:32:16;11.95;;;6.20;;
74259;SDS011;62630;55.874;37.516;2023-04-03T14:34:42;15.60;;;5.78;;
74259;SDS011;62630;55.874;37.516;2023-04-03T14:37:09;12.23;;;5.82;;
74259;SDS011;62630;55.874;37.516;2023-04-03T14:39:36;10.57;;;5.53;;
74259;SDS011;62630;55.874;37.516;2023-04-03T14:42:02;22.38;;;6.47;;
74259;SDS011;62630;55.874;37.516;2023-04-03T14:44:28;11.90;;;6.15;;
74259;SDS011;62630;55.874;37.516;2023-04-03T14:46:54;13.18;;;6.30;;
74259;SDS011;62630;55.874;37.516;2023-04-03T14:51:49;12.95;;;5.50;;
74259;SDS011;62630;55.874;37.516;2023-04-03T14:54:17;21.50;;;8.00;;
74259;SDS011;62630;55.874;37.516;2023-04-03T14:56:50;13.63;;;6.20;;
74259;SDS011;62630;55.874;37.516;2023-04-03T14:59:20;15.20;;;6.35;;
74259;SDS011;62630;55.874;37.516;2023-04-03T15:01:46;14.25;;;6.65;;
74259;SDS011;62630;55.874;37.516;2023-04-03T15:04:13;11.85;;;6.03;;
74259;SDS011;62630;55.874;37.516;2023-04-03T15:06:40;10.43;;;5.97;;
74259;SDS011;62630;55.874;37.516;2023-04-03T15:09:26;11.40;;;5.55;;
74259;SDS011;62630;55.874;37.516;2023-04-03T15:11:53;19.80;;;6.32;;
74259;SDS011;62630;55.874;37.516;2023-04-03T15:14:19;9.75;;;5.88;;
74259;SDS011;62630;55.874;37.516;2023-04-03T15:19:13;13.20;;;6.30;;
74259;SDS011;62630;55.874;37.516;2023-04-03T15:21:39;12.15;;;6.30;;
74259;SDS011;62630;55.874;37.516;2023-04-03T15:24:05;17.95;;;7.05;;
74259;SDS011;62630;55.874;37.516;2023-04-03T15:26:31;14.32;;;7.00;;
74259;SDS011;62630;55.874;37.516;2023-04-03T15:28:58;11.77;;;7.00;;
74259;SDS011;62630;55.874;37.516;2023-04-03T15:31:24;13.27;;;7.03;;
74259;SDS011;62630;55.874;37.516;2023-04-03T15:33:50;19.35;;;9.35;;
74259;SDS011;62630;55.874;37.516;2023-04-03T15:36:15;15.10;;;8.40;;
74259;SDS011;62630;55.874;37.516;2023-04-03T15:38:41;17.73;;;7.65;;
74259;SDS011;62630;55.874;37.516;2023-04-03T15:41:06;12.38;;;7.55;;
74259;SDS011;62630;55.874;37.516;2023-04-03T15:43:32;15.35;;;9.23;;
74259;SDS011;62630;55.874;37.516;2023-04-03T15:46:00;13.68;;;8.70;;
74259;SDS011;62630;55.874;37.516;2023-04-03T15:48:26;16.48;;;8.75;;
74259;SDS011;62630;55.874;37.516;2023-04-03T15:50:53;17.83;;;8.95;;
74259;SDS011;62630;55.874;37.516;2023-04-03T15:53:19;17.38;;;8.50;;
74259;SDS011;62630;55.874;37.516;2023-04-03T15:55:44;23.85;;;8.52;;
74259;SDS011;62630;55.874;37.516;2023-04-03T15:58:10;17.52;;;8.25;;
74259;SDS011;62630;55.874;37.516;2023-04-03T16:00:36;15.18;;;8.45;;
74259;SDS011;62630;55.874;37.516;2023-04-03T16:03:10;17.85;;;8.73;;
74259;SDS011;62630;55.874;37.516;2023-04-03T16:05:37;15.18;;;8.30;;
74259;SDS011;62630;55.874;37.516;2023-04-03T16:08:04;16.45;;;8.45;;
74259;SDS011;62630;55.874;37.516;2023-04-03T16:10:32;15.45;;;8.40;;
74259;SDS011;62630;55.874;37.516;2023-04-03T16:12:59;13.48;;;8.25;;
74259;SDS011;62630;55.874;37.516;2023-04-03T16:15:25;19.17;;;9.00;;
74259;SDS011;62630;55.874;37.516;2023-04-03T16:17:51;15.70;;;9.10;;
74259;SDS011;62630;55.874;37.516;2023-04-03T16:20:18;22.00;;;8.95;;
74259;SDS011;62630;55.874;37.516;2023-04-03T16:22:45;13.95;;;8.27;;
74259;SDS011;62630;55.874;37.516;2023-04-03T16:25:11;17.83;;;8.98;;
74259;SDS011;62630;55.874;37.516;2023-04-03T16:27:37;15.88;;;9.05;;
74259;SDS011;62630;55.874;37.516;2023-04-03T16:30:03;23.90;;;9.40;;
74259;SDS011;62630;55.874;37.516;2023-04-03T16:32:31;19.00;;;9.10;;
74259;SDS011;62630;55.874;37.516;2023-04-03T16:34:57;14.02;;;8.68;;
74259;SDS011;62630;55.874;37.516;2023-04-03T16:37:23;18.92;;;8.55;;
74259;SDS011;62630;55.874;37.516;2023-04-03T16:39:49;12.82;;;8.98;;
74259;SDS011;62630;55.874;37.516;2023-04-03T16:42:15;21.13;;;8.95;;